Terminal Aerodrome Forecast
Issued by NWS

Home | Current Version | Previous Version | Text Only | Print | Product List | Glossary On
Versions: 1 2 3 4 5 6 7 8 9 10 11 12 13
857
FTUS46 KSTO 061124
TAFSCK
TAF
KSCK 061124Z 0612/0712 30006KT P6SM VCSH BKN060
     FM062100 24006KT P6SM -SHRA OVC050
     FM070200 29007KT P6SM VCSH BKN050
     FM070600 30007KT P6SM OVC050=

USA.gov is the U.S. government's official web portal to all federal, state and local government web resources and services.